Amsterdam, Ohio
Current Conditions -  °F | °C
As of 1:53 PM on Saturday 25 Oct 2014 (Local Time) from KHLG Reporting Station
Overcast Overcast  
Wind Chill: 63°   Ceiling: 5000
Heat Index: 63°   Visibility: 10mi
Dew Point: 48°   Wind: 20mph
Humidity: 58%   Direction: 220°SW
Pressure: 29.85"   Gusts: 26mph
Location:  40.47°N, 80.92°W
Report Text: KHLG 251753Z 22017G23KT 10SM OVC050 17/09 A2985 RMK AO2 SLP110 T01720089 10178 20072 58036
Loading
Personal Weather Stations






























Interactive Weather Map
Tropical Storm Tracking
New forecast layout! Learn more

10-Day Weather Forecast

Advertisements
Track Severe Weather on mobile